createdAt,value
2023-04-18T00:01:42.093Z,5.05
2023-04-18T00:04:09.021Z,6.13
2023-04-18T00:06:38.897Z,5.25
2023-04-18T00:09:05.532Z,5.40
2023-04-18T00:11:32.070Z,5.28
2023-04-18T00:13:59.424Z,4.47
2023-04-18T00:16:27.274Z,4.63
2023-04-18T00:18:54.163Z,4.35
2023-04-18T00:21:23.264Z,4.05
2023-04-18T00:23:49.757Z,5.03
2023-04-18T00:26:16.249Z,4.80
2023-04-18T00:28:42.781Z,4.03
2023-04-18T00:31:09.368Z,4.03
2023-04-18T00:33:35.931Z,7.10
2023-04-18T00:36:02.465Z,7.07
2023-04-18T00:38:28.906Z,7.28
2023-04-18T00:40:55.383Z,8.70
2023-04-18T00:43:23.828Z,7.63
2023-04-18T00:45:50.440Z,7.60
2023-04-18T00:48:17.579Z,8.57
2023-04-18T00:50:45.276Z,8.25
2023-04-18T00:53:11.929Z,11.30
2023-04-18T00:55:39.434Z,11.95
2023-04-18T00:58:06.401Z,12.13
2023-04-18T01:00:32.917Z,13.23
2023-04-18T01:02:59.828Z,11.18
2023-04-18T01:05:27.073Z,11.45
2023-04-18T01:07:58.743Z,10.52
2023-04-18T01:10:26.223Z,12.02
2023-04-18T01:13:13.217Z,9.45
2023-04-18T01:15:43.907Z,11.80
2023-04-18T01:18:11.742Z,12.02
2023-04-18T01:20:41.503Z,11.85
2023-04-18T01:23:10.410Z,10.55
2023-04-18T01:25:37.348Z,9.57
2023-04-18T01:28:04.830Z,10.82
2023-04-18T01:30:31.406Z,11.77
2023-04-18T01:32:57.939Z,9.00
2023-04-18T01:35:24.463Z,10.18
2023-04-18T01:37:50.979Z,10.38
2023-04-18T01:40:17.516Z,9.15
2023-04-18T01:42:44.025Z,10.43
2023-04-18T01:45:11.980Z,12.43
2023-04-18T01:47:38.616Z,8.98
2023-04-18T01:50:05.843Z,9.63
2023-04-18T01:52:32.363Z,11.52
2023-04-18T01:54:58.949Z,9.65
2023-04-18T01:57:25.489Z,10.88
2023-04-18T01:59:51.946Z,10.00
2023-04-18T02:02:18.735Z,10.38
2023-04-18T02:04:45.592Z,9.07
2023-04-18T02:07:12.226Z,10.70
2023-04-18T02:09:38.675Z,9.27
2023-04-18T02:12:05.273Z,10.75
2023-04-18T02:14:36.283Z,8.35
2023-04-18T02:17:02.810Z,7.75
2023-04-18T02:19:30.202Z,8.38
2023-04-18T02:21:56.725Z,10.10
2023-04-18T02:24:23.310Z,8.88
2023-04-18T02:26:50.362Z,9.63
2023-04-18T02:29:17.064Z,9.85
2023-04-18T02:31:43.675Z,9.98
2023-04-18T02:34:10.259Z,7.75
2023-04-18T02:36:36.739Z,9.30
2023-04-18T02:39:03.373Z,8.63
2023-04-18T02:41:29.818Z,8.02
2023-04-18T02:43:56.348Z,7.80
2023-04-18T02:46:22.943Z,9.15
2023-04-18T02:48:49.573Z,8.57
2023-04-18T02:51:16.292Z,8.00
2023-04-18T02:53:42.759Z,8.00
2023-04-18T02:56:09.283Z,10.32
2023-04-18T02:58:36.442Z,8.25
2023-04-18T03:01:03.220Z,9.63
2023-04-18T03:03:29.783Z,9.93
2023-04-18T03:05:56.316Z,8.95
2023-04-18T03:08:22.738Z,7.03
2023-04-18T03:10:49.232Z,8.73
2023-04-18T03:13:16.897Z,9.00
2023-04-18T03:15:43.531Z,9.15
2023-04-18T03:18:10.016Z,7.82
2023-04-18T03:20:37.516Z,8.20
2023-04-18T03:23:03.962Z,6.72
2023-04-18T03:25:30.613Z,9.55
2023-04-18T03:27:57.064Z,7.45
2023-04-18T03:30:23.609Z,8.48
2023-04-18T03:32:52.944Z,8.65
2023-04-18T03:35:19.732Z,8.90
2023-04-18T03:37:46.158Z,8.13
2023-04-18T03:40:12.712Z,9.85
2023-04-18T03:42:39.192Z,8.43
2023-04-18T03:45:06.079Z,8.55
2023-04-18T03:47:32.605Z,9.63
2023-04-18T03:49:59.049Z,8.73
2023-04-18T03:52:26.075Z,9.35
2023-04-18T03:54:53.441Z,10.10
2023-04-18T03:57:19.887Z,9.65
2023-04-18T03:59:47.942Z,8.07
2023-04-18T04:02:14.599Z,8.43
2023-04-18T04:04:41.424Z,8.93
2023-04-18T04:07:07.983Z,9.63
2023-04-18T04:09:34.435Z,10.60
2023-04-18T04:12:02.223Z,9.98
2023-04-18T04:14:28.646Z,10.93
2023-04-18T04:16:55.219Z,9.38
2023-04-18T04:19:21.708Z,11.63
2023-04-18T04:21:48.470Z,10.85
2023-04-18T04:24:16.191Z,12.93
2023-04-18T04:26:43.125Z,13.15
2023-04-18T04:29:13.855Z,11.38
2023-04-18T04:31:40.480Z,11.10
2023-04-18T04:34:07.047Z,15.23
2023-04-18T04:36:33.546Z,9.77
2023-04-18T04:39:00.249Z,12.52
2023-04-18T04:41:27.748Z,11.95
2023-04-18T04:43:54.486Z,12.27
2023-04-18T04:46:21.203Z,11.48
2023-04-18T04:48:47.752Z,16.23
2023-04-18T04:51:14.270Z,11.70
2023-04-18T04:53:40.888Z,15.15
2023-04-18T04:56:07.653Z,14.18
2023-04-18T04:58:34.202Z,15.43
2023-04-18T05:01:01.049Z,14.07
2023-04-18T05:03:27.828Z,16.35
2023-04-18T05:05:54.561Z,15.68
2023-04-18T05:08:21.016Z,14.65
2023-04-18T05:10:49.724Z,14.98
2023-04-18T05:13:16.331Z,14.02
2023-04-18T05:15:43.093Z,14.18
2023-04-18T05:18:09.633Z,15.25
2023-04-18T05:20:36.243Z,14.52
2023-04-18T05:23:02.728Z,15.73
2023-04-18T05:25:29.898Z,16.90
2023-04-18T05:27:56.473Z,14.95
2023-04-18T05:30:22.922Z,15.02
2023-04-18T05:32:49.433Z,15.32
2023-04-18T05:35:16.394Z,14.13
2023-04-18T05:37:42.885Z,15.57
2023-04-18T05:40:10.242Z,16.30
2023-04-18T05:42:36.718Z,13.27
2023-04-18T05:45:03.411Z,16.60
2023-04-18T05:47:30.453Z,14.43
2023-04-18T05:49:57.037Z,15.18
2023-04-18T05:52:23.778Z,16.45
2023-04-18T05:54:50.878Z,13.07
2023-04-18T05:57:17.462Z,13.13
2023-04-18T05:59:44.324Z,13.15
2023-04-18T06:02:13.694Z,13.77
2023-04-18T06:04:42.009Z,16.42
2023-04-18T06:07:09.852Z,14.98
2023-04-18T06:09:36.418Z,14.45
2023-04-18T06:12:03.079Z,13.20
2023-04-18T06:14:29.608Z,17.30
2023-04-18T06:16:56.250Z,16.08
2023-04-18T06:19:22.961Z,16.33
2023-04-18T06:21:49.879Z,15.65
2023-04-18T06:24:16.646Z,12.88
2023-04-18T06:26:43.569Z,11.82
2023-04-18T06:29:10.472Z,13.38
2023-04-18T06:31:37.077Z,13.35
2023-04-18T06:34:03.590Z,14.05
2023-04-18T06:36:30.401Z,12.95
2023-04-18T06:38:56.910Z,14.65
2023-04-18T06:41:23.377Z,12.82
2023-04-18T06:44:02.750Z,16.35
2023-04-18T06:46:31.438Z,11.95
2023-04-18T06:48:58.041Z,14.95
2023-04-18T06:51:24.623Z,15.52
2023-04-18T06:53:52.970Z,12.93
2023-04-18T06:56:20.622Z,13.40
2023-04-18T06:58:47.533Z,14.82
2023-04-18T07:01:14.096Z,16.33
2023-04-18T07:03:40.738Z,13.02
2023-04-18T07:06:08.902Z,15.63
2023-04-18T07:08:35.624Z,14.20
2023-04-18T07:11:02.348Z,12.57
2023-04-18T07:13:29.063Z,13.02
2023-04-18T07:15:55.685Z,13.05
2023-04-18T07:18:34.349Z,13.23
2023-04-18T07:21:03.729Z,13.93
2023-04-18T07:23:30.223Z,18.55
2023-04-18T07:25:58.588Z,12.52
2023-04-18T07:28:25.102Z,14.30
2023-04-18T07:30:51.722Z,13.05
2023-04-18T07:33:18.221Z,15.40
2023-04-18T07:35:46.003Z,14.70
2023-04-18T07:38:13.101Z,15.05
2023-04-18T07:40:39.639Z,15.05
2023-04-18T07:43:06.121Z,14.35
2023-04-18T07:45:35.659Z,14.55
2023-04-18T07:48:02.503Z,14.40
2023-04-18T07:50:29.043Z,14.85
2023-04-18T07:52:55.668Z,15.90
2023-04-18T07:55:22.130Z,15.57
2023-04-18T07:57:50.464Z,13.82
2023-04-18T08:00:18.241Z,16.05
2023-04-18T08:02:44.923Z,20.98
2023-04-18T08:05:12.103Z,15.02
2023-04-18T08:07:38.718Z,15.57
2023-04-18T08:10:05.648Z,16.42
2023-04-18T08:12:32.138Z,14.48
2023-04-18T08:14:58.590Z,13.93
2023-04-18T08:17:25.126Z,15.00
2023-04-18T08:19:51.695Z,15.55
2023-04-18T08:22:18.277Z,14.65
2023-04-18T08:25:01.066Z,13.82
2023-04-18T08:27:31.375Z,16.75
2023-04-18T08:29:58.211Z,14.98
2023-04-18T08:32:24.762Z,14.77
2023-04-18T08:34:51.382Z,16.88
2023-04-18T08:37:17.815Z,14.90
2023-04-18T08:39:45.030Z,15.70
2023-04-18T08:42:15.885Z,13.45
2023-04-18T08:44:42.938Z,13.57
2023-04-18T08:47:09.897Z,12.98
2023-04-18T08:49:36.417Z,14.93
2023-04-18T08:52:11.290Z,15.40
2023-04-18T08:54:42.020Z,15.95
2023-04-18T08:57:12.635Z,13.70
2023-04-18T08:59:40.185Z,13.80
2023-04-18T09:02:08.933Z,14.07
2023-04-18T09:04:36.667Z,14.73
2023-04-18T09:07:05.697Z,12.10
2023-04-18T09:09:46.810Z,14.48
2023-04-18T09:12:18.167Z,13.57
2023-04-18T09:14:46.993Z,19.90
2023-04-18T09:17:18.390Z,14.20
2023-04-18T09:19:48.997Z,14.60
2023-04-18T09:22:17.027Z,13.98
2023-04-18T09:24:53.613Z,13.73
2023-04-18T09:27:23.202Z,12.82
2023-04-18T09:29:52.204Z,12.95
2023-04-18T09:32:36.598Z,11.73
2023-04-18T09:35:05.374Z,11.32
2023-04-18T09:37:31.977Z,11.05
2023-04-18T09:39:58.578Z,12.98
2023-04-18T09:42:28.242Z,10.40
2023-04-18T09:45:01.394Z,9.90
2023-04-18T09:47:28.477Z,13.23
2023-04-18T09:49:55.630Z,11.70
2023-04-18T09:52:25.353Z,11.80
2023-04-18T09:54:59.724Z,10.25
2023-04-18T09:57:31.278Z,10.00
2023-04-18T10:00:17.365Z,9.70
2023-04-18T10:02:58.397Z,10.40
2023-04-18T10:05:27.504Z,11.57
2023-04-18T10:07:55.059Z,11.57
2023-04-18T10:10:21.898Z,9.45
2023-04-18T10:12:50.868Z,10.30
2023-04-18T10:15:20.014Z,9.30
2023-04-18T10:18:04.297Z,10.25
2023-04-18T10:20:34.949Z,9.40
2023-04-18T10:23:37.878Z,9.90
2023-04-18T10:26:07.931Z,12.63
2023-04-18T10:28:57.636Z,15.02
2023-04-18T10:31:28.576Z,16.63
2023-04-18T10:36:28.355Z,15.60
2023-04-18T10:39:29.990Z,11.38
2023-04-18T10:41:56.589Z,10.25
2023-04-18T10:44:23.504Z,9.85
2023-04-18T10:46:53.053Z,9.07
2023-04-18T10:49:23.358Z,8.93
2023-04-18T10:51:53.841Z,10.48
2023-04-18T10:54:32.407Z,9.95
2023-04-18T10:57:04.154Z,10.10
2023-04-18T10:59:33.135Z,12.05
2023-04-18T11:02:02.502Z,8.32
2023-04-18T11:04:29.258Z,6.88
2023-04-18T11:06:57.476Z,9.85
2023-04-18T11:09:24.650Z,9.98
2023-04-18T11:12:08.233Z,8.85
2023-04-18T11:14:42.131Z,10.38
2023-04-18T11:17:18.482Z,9.20
2023-04-18T11:19:45.186Z,11.05
2023-04-18T11:22:12.263Z,9.02
2023-04-18T11:24:39.090Z,9.93
2023-04-18T11:27:05.801Z,13.75
2023-04-18T11:29:32.463Z,12.80
2023-04-18T11:31:59.136Z,11.77
2023-04-18T11:34:31.746Z,15.32
2023-04-18T11:36:58.458Z,10.65
2023-04-18T11:39:25.064Z,10.93
2023-04-18T11:41:51.717Z,10.77
2023-04-18T11:44:23.453Z,13.05
2023-04-18T11:46:51.382Z,10.98
2023-04-18T11:49:32.106Z,18.40
2023-04-18T11:51:59.894Z,41.38
2023-04-18T11:54:36.591Z,12.18
2023-04-18T11:57:03.353Z,10.48
2023-04-18T11:59:29.868Z,10.70
2023-04-18T12:02:15.292Z,20.50
2023-04-18T12:05:00.171Z,12.48
2023-04-18T12:07:41.575Z,12.00
2023-04-18T12:10:23.465Z,10.02
2023-04-18T12:13:01.037Z,11.98
2023-04-18T12:15:29.382Z,15.35
2023-04-18T12:18:00.976Z,12.07
2023-04-18T12:20:47.343Z,13.38
2023-04-18T12:23:32.769Z,28.90
2023-04-18T12:26:01.461Z,20.98
2023-04-18T12:28:28.220Z,15.57
2023-04-18T12:30:55.791Z,12.02
2023-04-18T12:33:22.517Z,10.77
2023-04-18T12:35:49.672Z,11.70
2023-04-18T12:38:20.225Z,10.93
2023-04-18T12:40:46.777Z,11.93
2023-04-18T12:43:13.415Z,11.25
2023-04-18T12:45:39.914Z,10.88
2023-04-18T12:48:06.708Z,11.10
2023-04-18T12:50:33.382Z,11.45
2023-04-18T12:53:01.606Z,11.55
2023-04-18T12:55:29.146Z,9.57
2023-04-18T12:57:56.074Z,11.20
2023-04-18T13:00:24.210Z,11.68
2023-04-18T13:02:52.502Z,10.88
2023-04-18T13:05:21.369Z,11.07
2023-04-18T13:07:49.722Z,10.20
2023-04-18T13:10:20.919Z,13.60
2023-04-18T13:12:49.751Z,12.63
2023-04-18T13:15:16.928Z,11.15
2023-04-18T13:17:45.073Z,11.82
2023-04-18T13:20:15.097Z,11.65
2023-04-18T13:22:42.840Z,10.27
2023-04-18T13:25:10.697Z,9.52
2023-04-18T13:27:39.619Z,9.13
2023-04-18T13:30:10.364Z,13.82
2023-04-18T13:32:37.722Z,10.23
2023-04-18T13:35:04.594Z,10.63
2023-04-18T13:37:31.329Z,10.45
2023-04-18T13:39:58.025Z,12.80
2023-04-18T13:42:24.577Z,13.98
2023-04-18T13:44:51.106Z,11.30
2023-04-18T13:47:17.643Z,9.20
2023-04-18T13:49:44.178Z,11.55
2023-04-18T13:52:10.637Z,10.93
2023-04-18T13:54:37.687Z,10.30
2023-04-18T13:57:04.443Z,11.20
2023-04-18T13:59:32.324Z,10.55
2023-04-18T14:01:59.081Z,10.95
2023-04-18T14:04:26.073Z,10.20
2023-04-18T14:06:52.798Z,9.95
2023-04-18T14:09:19.404Z,10.00
2023-04-18T14:11:46.467Z,16.02
2023-04-18T14:14:13.065Z,11.85
2023-04-18T14:16:39.582Z,10.15
2023-04-18T14:19:06.057Z,10.80
2023-04-18T14:21:32.532Z,10.43
2023-04-18T14:23:59.058Z,10.75
2023-04-18T14:26:25.601Z,10.40
2023-04-18T14:28:52.173Z,11.63
2023-04-18T14:31:18.827Z,10.48
2023-04-18T14:33:45.372Z,10.00
2023-04-18T14:36:12.258Z,12.20
2023-04-18T14:38:38.719Z,11.93
2023-04-18T14:41:05.660Z,13.00
2023-04-18T14:43:32.371Z,11.43
2023-04-18T14:45:59.797Z,10.18
2023-04-18T14:48:27.865Z,13.23
2023-04-18T14:50:58.568Z,12.68
2023-04-18T14:53:25.301Z,9.93
2023-04-18T14:55:52.141Z,12.25
2023-04-18T14:58:18.627Z,10.15
2023-04-18T15:00:45.126Z,13.75
2023-04-18T15:03:11.799Z,11.38
2023-04-18T15:05:46.397Z,10.70
2023-04-18T15:08:14.548Z,13.18
2023-04-18T15:10:42.573Z,13.55
2023-04-18T15:13:09.832Z,14.18
2023-04-18T15:15:37.720Z,11.77
2023-04-18T15:18:04.756Z,11.50
2023-04-18T15:20:31.617Z,17.08
2023-04-18T15:22:58.153Z,14.30
2023-04-18T15:25:26.080Z,14.05
2023-04-18T15:27:52.966Z,12.30
2023-04-18T15:30:19.807Z,12.05
2023-04-18T15:32:47.664Z,11.68
2023-04-18T15:35:14.473Z,15.40
2023-04-18T15:37:41.476Z,12.35
2023-04-18T15:40:11.305Z,11.90
2023-04-18T15:42:39.516Z,11.13
2023-04-18T15:45:07.894Z,12.45
2023-04-18T15:47:34.786Z,13.88
2023-04-18T15:50:02.827Z,12.13
2023-04-18T15:52:29.952Z,12.55
2023-04-18T15:55:00.276Z,12.38
2023-04-18T15:57:26.911Z,11.40
2023-04-18T15:59:53.938Z,11.20
2023-04-18T16:02:20.752Z,14.40
2023-04-18T16:04:47.260Z,13.40
2023-04-18T16:07:13.861Z,13.32
2023-04-18T16:09:40.538Z,14.73
2023-04-18T16:12:08.131Z,13.25
2023-04-18T16:14:34.700Z,14.23
2023-04-18T16:17:01.243Z,14.00
2023-04-18T16:19:27.667Z,12.82
2023-04-18T16:21:54.199Z,12.32
2023-04-18T16:24:20.865Z,14.25
2023-04-18T16:26:47.361Z,13.02
2023-04-18T16:29:13.809Z,14.57
2023-04-18T16:31:41.518Z,15.63
2023-04-18T16:34:08.011Z,13.35
2023-04-18T16:36:34.782Z,15.98
2023-04-18T16:39:01.433Z,13.25
2023-04-18T16:41:28.079Z,12.43
2023-04-18T16:43:54.563Z,15.05
2023-04-18T16:46:21.112Z,14.05
2023-04-18T16:48:48.625Z,13.65
2023-04-18T16:51:16.169Z,15.25
2023-04-18T16:53:42.757Z,13.50
2023-04-18T16:56:09.308Z,15.18
2023-04-18T16:58:35.780Z,15.80
2023-04-18T17:01:02.399Z,15.95
2023-04-18T17:03:28.982Z,12.57
2023-04-18T17:05:55.905Z,14.32
2023-04-18T17:08:22.403Z,15.45
2023-04-18T17:10:51.909Z,17.35
2023-04-18T17:13:18.556Z,14.15
2023-04-18T17:15:45.091Z,16.35
2023-04-18T17:18:11.778Z,15.65
2023-04-18T17:20:38.404Z,17.92
2023-04-18T17:23:04.930Z,17.77
2023-04-18T17:25:31.877Z,15.63
2023-04-18T17:27:58.712Z,19.20
2023-04-18T17:30:25.242Z,13.95
2023-04-18T17:32:51.759Z,14.82
2023-04-18T17:35:18.442Z,16.75
2023-04-18T17:37:47.400Z,15.77
2023-04-18T17:40:13.978Z,14.52
2023-04-18T17:42:40.466Z,15.38
2023-04-18T17:45:08.885Z,13.05
2023-04-18T17:47:36.690Z,16.17
2023-04-18T17:50:04.141Z,17.75
2023-04-18T17:52:30.691Z,17.52
2023-04-18T17:54:58.403Z,16.00
2023-04-18T17:57:26.607Z,17.05
2023-04-18T17:59:53.670Z,17.52
2023-04-18T18:02:20.456Z,15.85
2023-04-18T18:04:47.250Z,15.32
2023-04-18T18:07:13.899Z,17.52
2023-04-18T18:09:42.006Z,14.98
2023-04-18T18:12:12.281Z,14.88
2023-04-18T18:14:40.470Z,15.27
2023-04-18T18:17:07.264Z,14.80
2023-04-18T18:19:36.715Z,14.18
2023-04-18T18:22:03.211Z,14.88
2023-04-18T18:24:29.986Z,16.40
2023-04-18T18:26:58.067Z,15.15
2023-04-18T18:29:24.674Z,16.10
2023-04-18T18:31:51.246Z,15.15
2023-04-18T18:34:17.818Z,15.10
2023-04-18T18:36:44.265Z,16.42
2023-04-18T18:39:11.159Z,16.30
2023-04-18T18:41:37.788Z,16.50
2023-04-18T18:44:04.374Z,15.75
2023-04-18T18:46:31.060Z,16.92
2023-04-18T18:48:57.703Z,16.85
2023-04-18T18:51:24.279Z,14.43
2023-04-18T18:53:50.787Z,16.73
2023-04-18T18:56:17.241Z,14.55
2023-04-18T18:58:43.809Z,17.15
2023-04-18T19:01:11.520Z,14.43
2023-04-18T19:03:38.258Z,14.27
2023-04-18T19:06:07.026Z,15.80
2023-04-18T19:08:34.096Z,14.57
2023-04-18T19:11:00.713Z,13.30
2023-04-18T19:13:27.287Z,16.20
2023-04-18T19:15:54.228Z,15.98
2023-04-18T19:18:21.314Z,12.80
2023-04-18T19:20:49.539Z,13.85
2023-04-18T19:23:17.047Z,16.58
2023-04-18T19:25:44.911Z,15.57
2023-04-18T19:28:12.867Z,8.70
2023-04-18T19:30:39.381Z,15.13
2023-04-18T19:33:06.005Z,7.05
2023-04-18T19:35:32.556Z,6.55
2023-04-18T19:38:01.716Z,7.22
2023-04-18T19:40:29.298Z,5.63
2023-04-18T19:42:55.779Z,5.30
2023-04-18T19:45:22.278Z,5.10
2023-04-18T19:47:48.918Z,4.90
2023-04-18T19:50:15.438Z,6.75
2023-04-18T19:52:41.923Z,6.97
2023-04-18T19:55:08.858Z,5.95
2023-04-18T19:57:39.605Z,5.82
2023-04-18T20:00:11.380Z,6.47
2023-04-18T20:02:39.099Z,6.28
2023-04-18T20:05:07.350Z,5.43
2023-04-18T20:07:34.886Z,6.63
2023-04-18T20:10:01.802Z,7.70
2023-04-18T20:12:28.403Z,6.15
2023-04-18T20:14:55.515Z,6.38
2023-04-18T20:17:22.118Z,5.55
2023-04-18T20:19:49.598Z,6.90
2023-04-18T20:22:16.645Z,8.00
2023-04-18T20:24:44.996Z,7.03
2023-04-18T20:27:12.080Z,7.22
2023-04-18T20:29:38.676Z,6.47
2023-04-18T20:32:05.811Z,5.93
2023-04-18T20:34:32.587Z,7.45
2023-04-18T20:37:00.015Z,6.07
2023-04-18T20:39:27.033Z,5.95
2023-04-18T20:41:54.284Z,7.18
2023-04-18T20:44:21.758Z,5.65
2023-04-18T20:46:48.418Z,6.80
2023-04-18T20:49:15.071Z,6.43
2023-04-18T20:51:41.795Z,7.32
2023-04-18T20:54:08.257Z,6.82
2023-04-18T20:56:36.903Z,6.35
2023-04-18T20:59:04.927Z,7.38
2023-04-18T21:01:31.611Z,7.00
2023-04-18T21:03:58.414Z,6.93
2023-04-18T21:06:25.027Z,6.80
2023-04-18T21:08:51.568Z,6.72
2023-04-18T21:11:18.021Z,8.50
2023-04-18T21:13:44.539Z,6.78
2023-04-18T21:16:11.155Z,7.05
2023-04-18T21:18:37.698Z,6.40
2023-04-18T21:21:04.475Z,8.52
2023-04-18T21:23:31.113Z,10.55
2023-04-18T21:25:57.602Z,6.60
2023-04-18T21:28:24.141Z,7.13
2023-04-18T21:30:50.737Z,5.93
2023-04-18T21:33:17.259Z,6.57
2023-04-18T21:35:43.782Z,7.82
2023-04-18T21:38:10.326Z,6.95
2023-04-18T21:40:37.483Z,7.60
2023-04-18T21:43:03.958Z,11.00
2023-04-18T21:45:30.550Z,7.68
2023-04-18T21:47:57.099Z,6.43
2023-04-18T21:50:23.705Z,7.10
2023-04-18T21:52:50.137Z,7.30
2023-04-18T21:55:17.976Z,8.52
2023-04-18T21:57:44.460Z,7.95
2023-04-18T22:00:12.692Z,7.70
2023-04-18T22:02:39.224Z,7.38
2023-04-18T22:05:07.579Z,8.63
2023-04-18T22:07:43.330Z,8.27
2023-04-18T22:10:17.760Z,7.03
2023-04-18T22:12:44.462Z,7.70
2023-04-18T22:15:12.265Z,7.82
2023-04-18T22:17:41.684Z,6.03
2023-04-18T22:20:08.778Z,7.93
2023-04-18T22:22:35.444Z,6.65
2023-04-18T22:25:01.923Z,7.03
2023-04-18T22:27:28.442Z,8.25
2023-04-18T22:29:54.965Z,6.90
2023-04-18T22:32:21.487Z,8.27
2023-04-18T22:34:48.670Z,6.45
2023-04-18T22:37:15.149Z,6.93
2023-04-18T22:39:41.682Z,7.43
2023-04-18T22:42:08.168Z,6.97
2023-04-18T22:44:34.626Z,6.88
2023-04-18T22:47:01.380Z,7.00
2023-04-18T22:49:28.406Z,5.43
2023-04-18T22:51:54.834Z,5.43
2023-04-18T22:54:21.366Z,7.28
2023-04-18T22:56:51.449Z,6.65
2023-04-18T22:59:18.063Z,6.45
2023-04-18T23:01:44.757Z,7.63
2023-04-18T23:04:11.499Z,7.65
2023-04-18T23:06:38.774Z,5.78
2023-04-18T23:09:07.063Z,6.35
2023-04-18T23:11:33.539Z,7.20
2023-04-18T23:14:00.017Z,7.47
2023-04-18T23:16:26.695Z,8.00
2023-04-18T23:18:53.328Z,8.55
2023-04-18T23:21:19.784Z,7.97
2023-04-18T23:23:46.313Z,6.72
2023-04-18T23:26:14.437Z,8.55
2023-04-18T23:28:42.339Z,9.15
2023-04-18T23:31:09.601Z,6.05
2023-04-18T23:33:36.504Z,7.50
2023-04-18T23:36:03.295Z,7.43
2023-04-18T23:38:30.763Z,8.40
2023-04-18T23:40:57.256Z,7.55
2023-04-18T23:43:23.742Z,9.35
2023-04-18T23:45:50.632Z,6.93
2023-04-18T23:48:17.129Z,6.85
2023-04-18T23:50:52.495Z,7.80
2023-04-18T23:53:20.411Z,6.00
2023-04-18T23:55:49.477Z,9.32
2023-04-18T23:58:17.126Z,6.65
